Main page
METAR-TAF:

METAR-TAF

Airports :

USC Campus Downtown

Los Angeles, California, United States

latitude: 34-01N, longitude: 118-17W, elevation: 184 ft

Current weather observation

The report was made 36 minutes ago, at 04:52 UTC
Calm wind
Temperature 57°F
Humidity 82%
Pressure 30.15 in. Hg
Visibility: 6 miles
Few clouds at a height of 1000 ft
haze

METAR: KCQT 270452Z AUTO 00000KT 6SM HZ FEW010 14/11 A3015 RMK AO2 SLP208 T01440106

Time: 21:28 (05:28 UTC)


TAF: missing

Weather observations and forecasts of more than 4000 airports (METAR and TAF reports).

The available stations are represented by yellow and red dots on the map.

Hover mouse over dot to see the name of the station.

Then click to see weather observations and forecasts.

To change the map : click on the green buttons with a black cross to zoom in, on the green button with a dash to zoom out, or on the green arrows for adjacent maps.


METAR-TAF: